sensor_id;sensor_type;location;lat;lon;timestamp;temperature;humidity
39525;DHT22;25203;50.754;6.978;2022-12-07T00:00:42;4.40;99.90
39525;DHT22;25203;50.754;6.978;2022-12-07T00:02:43;4.50;99.90
39525;DHT22;25203;50.754;6.978;2022-12-07T00:04:43;4.50;99.90
39525;DHT22;25203;50.754;6.978;2022-12-07T00:06:46;4.50;99.90
39525;DHT22;25203;50.754;6.978;2022-12-07T00:08:47;4.50;99.90
39525;DHT22;25203;50.754;6.978;2022-12-07T00:10:47;4.50;99.90
39525;DHT22;25203;50.754;6.978;2022-12-07T00:12:48;4.60;99.90
39525;DHT22;25203;50.754;6.978;2022-12-07T00:14:49;4.60;99.90
39525;DHT22;25203;50.754;6.978;2022-12-07T00:16:51;4.60;99.90
39525;DHT22;25203;50.754;6.978;2022-12-07T00:18:52;4.60;99.90
39525;DHT22;25203;50.754;6.978;2022-12-07T00:20:52;4.60;99.90
39525;DHT22;25203;50.754;6.978;2022-12-07T00:22:53;4.60;99.90
39525;DHT22;25203;50.754;6.978;2022-12-07T00:24:54;4.60;99.90
39525;DHT22;25203;50.754;6.978;2022-12-07T00:26:54;4.70;99.90
39525;DHT22;25203;50.754;6.978;2022-12-07T00:28:57;4.60;99.90
39525;DHT22;25203;50.754;6.978;2022-12-07T00:31:03;4.60;99.90
39525;DHT22;25203;50.754;6.978;2022-12-07T00:33:04;4.70;99.90
39525;DHT22;25203;50.754;6.978;2022-12-07T00:35:04;4.60;99.90
39525;DHT22;25203;50.754;6.978;2022-12-07T00:37:05;4.60;99.90
39525;DHT22;25203;50.754;6.978;2022-12-07T00:39:06;4.60;99.90
39525;DHT22;25203;50.754;6.978;2022-12-07T00:41:13;4.60;99.90
39525;DHT22;25203;50.754;6.978;2022-12-07T00:43:14;4.60;99.90
39525;DHT22;25203;50.754;6.978;2022-12-07T00:45:14;4.60;99.90
39525;DHT22;25203;50.754;6.978;2022-12-07T00:47:15;4.60;99.90
39525;DHT22;25203;50.754;6.978;2022-12-07T00:49:15;4.60;99.90
39525;DHT22;25203;50.754;6.978;2022-12-07T00:51:18;4.60;99.90
39525;DHT22;25203;50.754;6.978;2022-12-07T00:53:34;4.60;99.90
39525;DHT22;25203;50.754;6.978;2022-12-07T00:55:36;4.50;99.90
39525;DHT22;25203;50.754;6.978;2022-12-07T00:57:36;4.60;99.90
39525;DHT22;25203;50.754;6.978;2022-12-07T00:59:37;4.60;99.90
39525;DHT22;25203;50.754;6.978;2022-12-07T01:01:38;4.50;99.90
39525;DHT22;25203;50.754;6.978;2022-12-07T01:03:38;4.60;99.90
39525;DHT22;25203;50.754;6.978;2022-12-07T01:05:39;4.60;99.90
39525;DHT22;25203;50.754;6.978;2022-12-07T01:07:40;4.50;99.90
39525;DHT22;25203;50.754;6.978;2022-12-07T01:09:40;4.50;99.90
39525;DHT22;25203;50.754;6.978;2022-12-07T01:11:42;4.50;99.90
39525;DHT22;25203;50.754;6.978;2022-12-07T01:13:43;4.50;99.90
39525;DHT22;25203;50.754;6.978;2022-12-07T01:15:44;4.60;99.90
39525;DHT22;25203;50.754;6.978;2022-12-07T01:17:45;4.50;99.90
39525;DHT22;25203;50.754;6.978;2022-12-07T01:19:45;4.60;99.90
39525;DHT22;25203;50.754;6.978;2022-12-07T01:21:46;4.60;99.90
39525;DHT22;25203;50.754;6.978;2022-12-07T01:23:47;4.60;99.90
39525;DHT22;25203;50.754;6.978;2022-12-07T01:25:57;4.60;99.90
39525;DHT22;25203;50.754;6.978;2022-12-07T01:27:58;4.60;99.90
39525;DHT22;25203;50.754;6.978;2022-12-07T01:29:58;4.60;99.90
39525;DHT22;25203;50.754;6.978;2022-12-07T01:31:59;4.70;99.90
39525;DHT22;25203;50.754;6.978;2022-12-07T01:34:00;4.70;99.90
39525;DHT22;25203;50.754;6.978;2022-12-07T01:36:08;4.70;99.90
39525;DHT22;25203;50.754;6.978;2022-12-07T01:38:12;4.70;99.90
39525;DHT22;25203;50.754;6.978;2022-12-07T01:40:13;4.70;99.90
39525;DHT22;25203;50.754;6.978;2022-12-07T01:42:14;4.70;99.90
39525;DHT22;25203;50.754;6.978;2022-12-07T01:44:30;4.70;99.90
39525;DHT22;25203;50.754;6.978;2022-12-07T01:46:33;4.70;99.90
39525;DHT22;25203;50.754;6.978;2022-12-07T01:48:40;4.70;99.90
39525;DHT22;25203;50.754;6.978;2022-12-07T01:50:43;4.70;99.90
39525;DHT22;25203;50.754;6.978;2022-12-07T01:52:48;4.70;99.90
39525;DHT22;25203;50.754;6.978;2022-12-07T01:54:53;4.70;99.90
39525;DHT22;25203;50.754;6.978;2022-12-07T01:56:56;4.70;99.90
39525;DHT22;25203;50.754;6.978;2022-12-07T01:58:58;4.70;99.90
39525;DHT22;25203;50.754;6.978;2022-12-07T02:01:00;4.70;99.90
39525;DHT22;25203;50.754;6.978;2022-12-07T02:03:10;4.70;99.90
39525;DHT22;25203;50.754;6.978;2022-12-07T02:05:11;4.70;99.90
39525;DHT22;25203;50.754;6.978;2022-12-07T02:07:13;4.70;99.90
39525;DHT22;25203;50.754;6.978;2022-12-07T02:09:14;4.70;99.90
39525;DHT22;25203;50.754;6.978;2022-12-07T02:11:15;4.70;99.90
39525;DHT22;25203;50.754;6.978;2022-12-07T02:13:19;4.70;99.90
39525;DHT22;25203;50.754;6.978;2022-12-07T02:15:28;4.70;99.90
39525;DHT22;25203;50.754;6.978;2022-12-07T02:20:00;4.70;99.90
39525;DHT22;25203;50.754;6.978;2022-12-07T02:31:17;4.70;99.90
39525;DHT22;25203;50.754;6.978;2022-12-07T02:33:30;4.70;99.90
39525;DHT22;25203;50.754;6.978;2022-12-07T02:37:47;4.80;99.90
39525;DHT22;25203;50.754;6.978;2022-12-07T02:40:01;4.80;99.90
39525;DHT22;25203;50.754;6.978;2022-12-07T02:42:12;4.80;99.90
39525;DHT22;25203;50.754;6.978;2022-12-07T02:44:17;4.80;99.90
39525;DHT22;25203;50.754;6.978;2022-12-07T02:46:27;4.80;99.90
39525;DHT22;25203;50.754;6.978;2022-12-07T02:48:31;4.80;99.90
39525;DHT22;25203;50.754;6.978;2022-12-07T02:50:33;4.80;99.90
39525;DHT22;25203;50.754;6.978;2022-12-07T02:52:34;4.80;99.90
39525;DHT22;25203;50.754;6.978;2022-12-07T02:54:34;4.80;99.90
39525;DHT22;25203;50.754;6.978;2022-12-07T03:01:38;4.80;99.90
39525;DHT22;25203;50.754;6.978;2022-12-07T03:03:43;4.70;99.90
39525;DHT22;25203;50.754;6.978;2022-12-07T03:05:55;4.80;99.90
39525;DHT22;25203;50.754;6.978;2022-12-07T03:12:43;4.70;99.90
39525;DHT22;25203;50.754;6.978;2022-12-07T03:14:50;4.70;99.90
39525;DHT22;25203;50.754;6.978;2022-12-07T03:17:05;4.70;99.90
39525;DHT22;25203;50.754;6.978;2022-12-07T03:19:15;4.70;99.90
39525;DHT22;25203;50.754;6.978;2022-12-07T03:21:24;4.70;99.90
39525;DHT22;25203;50.754;6.978;2022-12-07T03:23:25;4.70;99.90
39525;DHT22;25203;50.754;6.978;2022-12-07T03:25:27;4.80;99.90
39525;DHT22;25203;50.754;6.978;2022-12-07T03:27:32;4.80;99.90
39525;DHT22;25203;50.754;6.978;2022-12-07T03:29:41;4.80;99.90
39525;DHT22;25203;50.754;6.978;2022-12-07T03:31:49;4.80;99.90
39525;DHT22;25203;50.754;6.978;2022-12-07T03:36:08;4.80;99.90
39525;DHT22;25203;50.754;6.978;2022-12-07T03:40:37;4.80;99.90
39525;DHT22;25203;50.754;6.978;2022-12-07T03:42:40;4.80;99.90
39525;DHT22;25203;50.754;6.978;2022-12-07T03:44:41;4.80;99.90
39525;DHT22;25203;50.754;6.978;2022-12-07T03:51:13;4.80;99.90
39525;DHT22;25203;50.754;6.978;2022-12-07T03:53:20;4.80;99.90
39525;DHT22;25203;50.754;6.978;2022-12-07T03:55:28;4.80;99.90
39525;DHT22;25203;50.754;6.978;2022-12-07T03:57:31;4.80;99.90
39525;DHT22;25203;50.754;6.978;2022-12-07T03:59:32;4.80;99.90
39525;DHT22;25203;50.754;6.978;2022-12-07T04:01:33;4.80;99.90
39525;DHT22;25203;50.754;6.978;2022-12-07T04:03:34;4.80;99.90
39525;DHT22;25203;50.754;6.978;2022-12-07T04:05:35;4.80;99.90
39525;DHT22;25203;50.754;6.978;2022-12-07T04:07:35;4.80;99.90
39525;DHT22;25203;50.754;6.978;2022-12-07T04:09:36;4.80;99.90
39525;DHT22;25203;50.754;6.978;2022-12-07T04:11:36;4.80;99.90
39525;DHT22;25203;50.754;6.978;2022-12-07T04:13:37;4.80;99.90
39525;DHT22;25203;50.754;6.978;2022-12-07T04:15:58;4.80;99.90
39525;DHT22;25203;50.754;6.978;2022-12-07T04:18:04;4.80;99.90
39525;DHT22;25203;50.754;6.978;2022-12-07T04:20:06;4.80;99.90
39525;DHT22;25203;50.754;6.978;2022-12-07T04:22:07;4.70;99.90
39525;DHT22;25203;50.754;6.978;2022-12-07T04:24:07;4.70;99.90
39525;DHT22;25203;50.754;6.978;2022-12-07T04:26:08;4.70;99.90
39525;DHT22;25203;50.754;6.978;2022-12-07T04:28:09;4.70;99.90
39525;DHT22;25203;50.754;6.978;2022-12-07T04:30:09;4.70;99.90
39525;DHT22;25203;50.754;6.978;2022-12-07T04:32:10;4.70;99.90
39525;DHT22;25203;50.754;6.978;2022-12-07T04:34:11;4.70;99.90
39525;DHT22;25203;50.754;6.978;2022-12-07T04:36:12;4.70;99.90
39525;DHT22;25203;50.754;6.978;2022-12-07T04:38:13;4.70;99.90
39525;DHT22;25203;50.754;6.978;2022-12-07T04:40:13;4.70;99.90
39525;DHT22;25203;50.754;6.978;2022-12-07T04:42:14;4.70;99.90
39525;DHT22;25203;50.754;6.978;2022-12-07T04:44:16;4.60;99.90
39525;DHT22;25203;50.754;6.978;2022-12-07T04:46:17;4.70;99.90
39525;DHT22;25203;50.754;6.978;2022-12-07T04:48:18;4.70;99.90
39525;DHT22;25203;50.754;6.978;2022-12-07T04:50:18;4.70;99.90
39525;DHT22;25203;50.754;6.978;2022-12-07T04:52:19;4.60;99.90
39525;DHT22;25203;50.754;6.978;2022-12-07T04:54:20;4.60;99.90
39525;DHT22;25203;50.754;6.978;2022-12-07T04:56:22;4.60;99.90
39525;DHT22;25203;50.754;6.978;2022-12-07T04:58:22;4.50;99.90
39525;DHT22;25203;50.754;6.978;2022-12-07T05:00:23;4.50;99.90
39525;DHT22;25203;50.754;6.978;2022-12-07T05:02:25;4.60;99.90
39525;DHT22;25203;50.754;6.978;2022-12-07T05:06:27;4.50;99.90
39525;DHT22;25203;50.754;6.978;2022-12-07T05:08:27;4.50;99.90
39525;DHT22;25203;50.754;6.978;2022-12-07T05:10:28;4.50;99.90
39525;DHT22;25203;50.754;6.978;2022-12-07T05:12:29;4.50;99.90
39525;DHT22;25203;50.754;6.978;2022-12-07T05:14:30;4.50;99.90
39525;DHT22;25203;50.754;6.978;2022-12-07T05:16:31;4.50;99.90
39525;DHT22;25203;50.754;6.978;2022-12-07T05:18:31;4.50;99.90
39525;DHT22;25203;50.754;6.978;2022-12-07T05:20:32;4.50;99.90
39525;DHT22;25203;50.754;6.978;2022-12-07T05:24:33;4.50;99.90
39525;DHT22;25203;50.754;6.978;2022-12-07T05:26:34;4.50;99.90
39525;DHT22;25203;50.754;6.978;2022-12-07T05:36:39;4.50;99.90
39525;DHT22;25203;50.754;6.978;2022-12-07T05:38:40;4.50;99.90
39525;DHT22;25203;50.754;6.978;2022-12-07T05:40:41;4.50;99.90
39525;DHT22;25203;50.754;6.978;2022-12-07T05:42:42;4.50;99.90
39525;DHT22;25203;50.754;6.978;2022-12-07T05:44:45;4.50;99.90
39525;DHT22;25203;50.754;6.978;2022-12-07T05:46:46;4.50;99.90
39525;DHT22;25203;50.754;6.978;2022-12-07T05:48:47;4.50;99.90
39525;DHT22;25203;50.754;6.978;2022-12-07T05:50:48;4.50;99.90
39525;DHT22;25203;50.754;6.978;2022-12-07T05:54:59;4.50;99.90
39525;DHT22;25203;50.754;6.978;2022-12-07T05:57:00;4.50;99.90
39525;DHT22;25203;50.754;6.978;2022-12-07T05:59:01;4.50;99.90
39525;DHT22;25203;50.754;6.978;2022-12-07T06:01:20;4.50;99.90
39525;DHT22;25203;50.754;6.978;2022-12-07T06:03:21;4.50;99.90
39525;DHT22;25203;50.754;6.978;2022-12-07T06:05:22;4.50;99.90
39525;DHT22;25203;50.754;6.978;2022-12-07T06:07:22;4.50;99.90
39525;DHT22;25203;50.754;6.978;2022-12-07T06:09:24;4.50;99.90
39525;DHT22;25203;50.754;6.978;2022-12-07T06:11:25;4.50;99.90
39525;DHT22;25203;50.754;6.978;2022-12-07T06:13:44;4.40;99.90
39525;DHT22;25203;50.754;6.978;2022-12-07T06:15:45;4.40;99.90
39525;DHT22;25203;50.754;6.978;2022-12-07T06:17:47;4.40;99.90
39525;DHT22;25203;50.754;6.978;2022-12-07T06:19:48;4.40;99.90
39525;DHT22;25203;50.754;6.978;2022-12-07T06:21:49;4.40;99.90
39525;DHT22;25203;50.754;6.978;2022-12-07T06:23:50;4.40;99.90
39525;DHT22;25203;50.754;6.978;2022-12-07T06:25:50;4.40;99.90
39525;DHT22;25203;50.754;6.978;2022-12-07T06:27:51;4.40;99.90
39525;DHT22;25203;50.754;6.978;2022-12-07T06:29:52;4.40;99.90
39525;DHT22;25203;50.754;6.978;2022-12-07T06:31:53;4.40;99.90
39525;DHT22;25203;50.754;6.978;2022-12-07T06:34:02;4.40;99.90
39525;DHT22;25203;50.754;6.978;2022-12-07T06:36:03;4.40;99.90
39525;DHT22;25203;50.754;6.978;2022-12-07T06:38:06;4.40;99.90
39525;DHT22;25203;50.754;6.978;2022-12-07T06:40:08;4.40;99.90
39525;DHT22;25203;50.754;6.978;2022-12-07T06:42:09;4.40;99.90
39525;DHT22;25203;50.754;6.978;2022-12-07T06:44:09;4.40;99.90
39525;DHT22;25203;50.754;6.978;2022-12-07T06:46:10;4.40;99.90
39525;DHT22;25203;50.754;6.978;2022-12-07T06:48:11;4.40;99.90
39525;DHT22;25203;50.754;6.978;2022-12-07T06:50:13;4.30;99.90
39525;DHT22;25203;50.754;6.978;2022-12-07T06:52:14;4.30;99.90
39525;DHT22;25203;50.754;6.978;2022-12-07T06:54:15;4.30;99.90
39525;DHT22;25203;50.754;6.978;2022-12-07T06:56:16;4.20;99.90
39525;DHT22;25203;50.754;6.978;2022-12-07T06:58:17;4.20;99.90
39525;DHT22;25203;50.754;6.978;2022-12-07T07:00:18;4.20;99.90
39525;DHT22;25203;50.754;6.978;2022-12-07T07:02:19;4.20;99.90
39525;DHT22;25203;50.754;6.978;2022-12-07T07:04:19;4.20;99.90
39525;DHT22;25203;50.754;6.978;2022-12-07T07:06:20;4.20;99.90
39525;DHT22;25203;50.754;6.978;2022-12-07T07:08:21;4.20;99.90
39525;DHT22;25203;50.754;6.978;2022-12-07T07:10:21;4.20;99.90
39525;DHT22;25203;50.754;6.978;2022-12-07T07:12:22;4.20;99.90
39525;DHT22;25203;50.754;6.978;2022-12-07T07:14:23;4.20;99.90
39525;DHT22;25203;50.754;6.978;2022-12-07T07:16:23;4.20;99.90
39525;DHT22;25203;50.754;6.978;2022-12-07T07:18:24;4.30;99.90
39525;DHT22;25203;50.754;6.978;2022-12-07T07:20:25;4.30;99.90
39525;DHT22;25203;50.754;6.978;2022-12-07T07:22:26;4.30;99.90
39525;DHT22;25203;50.754;6.978;2022-12-07T07:24:27;4.30;99.90
39525;DHT22;25203;50.754;6.978;2022-12-07T07:26:27;4.40;99.90
39525;DHT22;25203;50.754;6.978;2022-12-07T07:28:28;4.30;99.90
39525;DHT22;25203;50.754;6.978;2022-12-07T07:30:28;4.30;99.90
39525;DHT22;25203;50.754;6.978;2022-12-07T07:32:29;4.40;99.90
39525;DHT22;25203;50.754;6.978;2022-12-07T07:34:29;4.40;99.90
39525;DHT22;25203;50.754;6.978;2022-12-07T07:36:30;4.40;99.90
39525;DHT22;25203;50.754;6.978;2022-12-07T07:38:31;4.40;99.90
39525;DHT22;25203;50.754;6.978;2022-12-07T07:40:31;4.40;99.90
39525;DHT22;25203;50.754;6.978;2022-12-07T07:42:32;4.40;99.90
39525;DHT22;25203;50.754;6.978;2022-12-07T07:44:33;4.40;99.90
39525;DHT22;25203;50.754;6.978;2022-12-07T07:46:34;4.40;99.90
39525;DHT22;25203;50.754;6.978;2022-12-07T07:48:35;4.40;99.90
39525;DHT22;25203;50.754;6.978;2022-12-07T07:50:35;4.40;99.90
39525;DHT22;25203;50.754;6.978;2022-12-07T07:52:36;4.40;99.90
39525;DHT22;25203;50.754;6.978;2022-12-07T07:54:37;4.50;99.90
39525;DHT22;25203;50.754;6.978;2022-12-07T07:56:37;4.50;99.90
39525;DHT22;25203;50.754;6.978;2022-12-07T07:58:38;4.50;99.90
39525;DHT22;25203;50.754;6.978;2022-12-07T08:00:39;4.50;99.90
39525;DHT22;25203;50.754;6.978;2022-12-07T08:02:41;4.50;99.90
39525;DHT22;25203;50.754;6.978;2022-12-07T08:04:43;4.50;99.90
39525;DHT22;25203;50.754;6.978;2022-12-07T08:06:44;4.50;99.90
39525;DHT22;25203;50.754;6.978;2022-12-07T08:08:44;4.50;99.90
39525;DHT22;25203;50.754;6.978;2022-12-07T08:10:45;4.50;99.90
39525;DHT22;25203;50.754;6.978;2022-12-07T08:12:46;4.40;99.90
39525;DHT22;25203;50.754;6.978;2022-12-07T08:15:05;4.50;99.90
39525;DHT22;25203;50.754;6.978;2022-12-07T08:17:06;4.50;99.90
39525;DHT22;25203;50.754;6.978;2022-12-07T08:19:06;4.50;99.90
39525;DHT22;25203;50.754;6.978;2022-12-07T08:21:09;4.50;99.90
39525;DHT22;25203;50.754;6.978;2022-12-07T08:23:10;4.50;99.90
39525;DHT22;25203;50.754;6.978;2022-12-07T08:25:11;4.50;99.90
39525;DHT22;25203;50.754;6.978;2022-12-07T08:27:12;4.50;99.90
39525;DHT22;25203;50.754;6.978;2022-12-07T08:29:12;4.50;99.90
39525;DHT22;25203;50.754;6.978;2022-12-07T08:31:16;4.50;99.90
39525;DHT22;25203;50.754;6.978;2022-12-07T08:33:17;4.60;99.90
39525;DHT22;25203;50.754;6.978;2022-12-07T08:35:17;4.60;99.90
39525;DHT22;25203;50.754;6.978;2022-12-07T08:37:18;4.70;99.90
39525;DHT22;25203;50.754;6.978;2022-12-07T08:39:18;4.70;99.90
39525;DHT22;25203;50.754;6.978;2022-12-07T08:41:19;4.70;99.90
39525;DHT22;25203;50.754;6.978;2022-12-07T08:43:20;4.80;99.90
39525;DHT22;25203;50.754;6.978;2022-12-07T08:45:21;5.00;99.90
39525;DHT22;25203;50.754;6.978;2022-12-07T08:47:22;5.20;99.90
39525;DHT22;25203;50.754;6.978;2022-12-07T08:49:27;5.60;99.90
39525;DHT22;25203;50.754;6.978;2022-12-07T08:51:28;5.90;99.90
39525;DHT22;25203;50.754;6.978;2022-12-07T08:53:29;6.10;99.90
39525;DHT22;25203;50.754;6.978;2022-12-07T08:55:30;6.20;99.90
39525;DHT22;25203;50.754;6.978;2022-12-07T08:57:33;5.90;99.90
39525;DHT22;25203;50.754;6.978;2022-12-07T08:59:35;5.60;99.90
39525;DHT22;25203;50.754;6.978;2022-12-07T09:01:36;5.40;99.90
39525;DHT22;25203;50.754;6.978;2022-12-07T09:03:37;5.30;99.90
39525;DHT22;25203;50.754;6.978;2022-12-07T09:05:37;5.20;99.90
39525;DHT22;25203;50.754;6.978;2022-12-07T09:07:38;5.40;99.90
39525;DHT22;25203;50.754;6.978;2022-12-07T09:09:39;5.50;99.90
39525;DHT22;25203;50.754;6.978;2022-12-07T09:11:39;5.80;99.90
39525;DHT22;25203;50.754;6.978;2022-12-07T09:13:40;6.30;99.90
39525;DHT22;25203;50.754;6.978;2022-12-07T09:15:41;6.30;99.90
39525;DHT22;25203;50.754;6.978;2022-12-07T09:17:41;6.10;99.90
39525;DHT22;25203;50.754;6.978;2022-12-07T09:19:42;5.90;99.90
39525;DHT22;25203;50.754;6.978;2022-12-07T09:21:42;5.70;99.90
39525;DHT22;25203;50.754;6.978;2022-12-07T09:23:43;5.60;99.90
39525;DHT22;25203;50.754;6.978;2022-12-07T09:25:44;5.60;99.90
39525;DHT22;25203;50.754;6.978;2022-12-07T09:27:44;5.90;99.90
39525;DHT22;25203;50.754;6.978;2022-12-07T09:29:45;6.10;99.90
39525;DHT22;25203;50.754;6.978;2022-12-07T09:31:45;6.00;99.90
39525;DHT22;25203;50.754;6.978;2022-12-07T09:33:46;5.80;99.90
39525;DHT22;25203;50.754;6.978;2022-12-07T09:35:48;5.60;99.90
39525;DHT22;25203;50.754;6.978;2022-12-07T09:37:50;5.60;99.90
39525;DHT22;25203;50.754;6.978;2022-12-07T09:39:51;5.60;99.90
39525;DHT22;25203;50.754;6.978;2022-12-07T09:41:52;5.60;99.90
39525;DHT22;25203;50.754;6.978;2022-12-07T09:44:05;5.50;99.90
39525;DHT22;25203;50.754;6.978;2022-12-07T09:46:08;5.50;99.90
39525;DHT22;25203;50.754;6.978;2022-12-07T09:48:42;5.70;99.90
39525;DHT22;25203;50.754;6.978;2022-12-07T09:50:43;6.50;99.90
39525;DHT22;25203;50.754;6.978;2022-12-07T09:52:45;7.40;99.90
39525;DHT22;25203;50.754;6.978;2022-12-07T09:54:49;8.10;99.90
39525;DHT22;25203;50.754;6.978;2022-12-07T09:56:50;8.30;99.90
39525;DHT22;25203;50.754;6.978;2022-12-07T09:58:58;8.60;99.90
39525;DHT22;25203;50.754;6.978;2022-12-07T10:01:22;8.40;99.90
39525;DHT22;25203;50.754;6.978;2022-12-07T10:03:22;7.90;99.90
39525;DHT22;25203;50.754;6.978;2022-12-07T10:05:44;7.30;99.90
39525;DHT22;25203;50.754;6.978;2022-12-07T10:07:45;6.90;99.90
39525;DHT22;25203;50.754;6.978;2022-12-07T10:09:46;6.70;99.90
39525;DHT22;25203;50.754;6.978;2022-12-07T10:12:03;6.40;99.90
39525;DHT22;25203;50.754;6.978;2022-12-07T10:14:12;6.40;99.90
39525;DHT22;25203;50.754;6.978;2022-12-07T10:18:36;6.30;99.90
39525;DHT22;25203;50.754;6.978;2022-12-07T10:20:37;6.40;99.90
39525;DHT22;25203;50.754;6.978;2022-12-07T10:22:38;6.40;99.90
39525;DHT22;25203;50.754;6.978;2022-12-07T10:24:53;6.30;99.90
39525;DHT22;25203;50.754;6.978;2022-12-07T10:26:54;6.30;99.90
39525;DHT22;25203;50.754;6.978;2022-12-07T10:31:20;6.60;99.90
39525;DHT22;25203;50.754;6.978;2022-12-07T10:35:52;7.40;99.90
39525;DHT22;25203;50.754;6.978;2022-12-07T10:37:55;7.50;99.90
39525;DHT22;25203;50.754;6.978;2022-12-07T10:39:57;8.00;99.90
39525;DHT22;25203;50.754;6.978;2022-12-07T10:42:02;7.90;99.90
39525;DHT22;25203;50.754;6.978;2022-12-07T10:44:03;7.30;99.90
39525;DHT22;25203;50.754;6.978;2022-12-07T10:50:41;6.60;99.90
39525;DHT22;25203;50.754;6.978;2022-12-07T10:57:48;6.40;99.90
39525;DHT22;25203;50.754;6.978;2022-12-07T11:00:07;6.40;99.90
39525;DHT22;25203;50.754;6.978;2022-12-07T11:02:24;6.60;99.90
39525;DHT22;25203;50.754;6.978;2022-12-07T11:07:25;6.60;99.90
39525;DHT22;25203;50.754;6.978;2022-12-07T11:09:33;6.50;99.90
39525;DHT22;25203;50.754;6.978;2022-12-07T11:11:41;6.40;99.90
39525;DHT22;25203;50.754;6.978;2022-12-07T11:16:50;6.20;99.90
39525;DHT22;25203;50.754;6.978;2022-12-07T11:21:22;6.40;99.90
39525;DHT22;25203;50.754;6.978;2022-12-07T11:31:13;6.90;99.90
39525;DHT22;25203;50.754;6.978;2022-12-07T11:33:46;7.50;99.90
39525;DHT22;25203;50.754;6.978;2022-12-07T11:36:02;7.50;99.90
39525;DHT22;25203;50.754;6.978;2022-12-07T11:42:24;7.70;99.90
39525;DHT22;25203;50.754;6.978;2022-12-07T11:44:37;7.80;99.90
39525;DHT22;25203;50.754;6.978;2022-12-07T11:50:57;8.40;99.90
39525;DHT22;25203;50.754;6.978;2022-12-07T11:55:24;8.40;99.90
39525;DHT22;25203;50.754;6.978;2022-12-07T11:57:34;8.40;99.90
39525;DHT22;25203;50.754;6.978;2022-12-07T11:59:40;7.80;99.90
39525;DHT22;25203;50.754;6.978;2022-12-07T12:02:00;7.60;99.90
39525;DHT22;25203;50.754;6.978;2022-12-07T12:06:26;7.30;99.90
39525;DHT22;25203;50.754;6.978;2022-12-07T12:08:35;7.10;99.90
39525;DHT22;25203;50.754;6.978;2022-12-07T12:13:19;6.60;99.90
39525;DHT22;25203;50.754;6.978;2022-12-07T12:18:14;6.40;99.90
39525;DHT22;25203;50.754;6.978;2022-12-07T12:20:49;6.30;99.90
39525;DHT22;25203;50.754;6.978;2022-12-07T12:25:48;6.40;99.90
39525;DHT22;25203;50.754;6.978;2022-12-07T12:27:50;6.20;99.90
39525;DHT22;25203;50.754;6.978;2022-12-07T12:29:54;6.10;99.90
39525;DHT22;25203;50.754;6.978;2022-12-07T12:32:15;6.10;99.90
39525;DHT22;25203;50.754;6.978;2022-12-07T12:36:59;6.10;99.90
39525;DHT22;25203;50.754;6.978;2022-12-07T12:39:10;6.00;99.90
39525;DHT22;25203;50.754;6.978;2022-12-07T12:43:56;6.10;99.90
39525;DHT22;25203;50.754;6.978;2022-12-07T12:48:35;6.00;99.90
39525;DHT22;25203;50.754;6.978;2022-12-07T12:50:38;6.10;99.90
39525;DHT22;25203;50.754;6.978;2022-12-07T12:57:04;6.20;99.90
39525;DHT22;25203;50.754;6.978;2022-12-07T13:00:15;6.10;99.90
39525;DHT22;25203;50.754;6.978;2022-12-07T13:04:38;6.10;99.90
39525;DHT22;25203;50.754;6.978;2022-12-07T13:06:41;6.10;99.90
39525;DHT22;25203;50.754;6.978;2022-12-07T13:08:43;6.00;99.90
39525;DHT22;25203;50.754;6.978;2022-12-07T13:10:45;5.90;99.90
39525;DHT22;25203;50.754;6.978;2022-12-07T13:15:37;5.70;99.90
39525;DHT22;25203;50.754;6.978;2022-12-07T13:21:43;5.70;99.90
39525;DHT22;25203;50.754;6.978;2022-12-07T13:26:06;5.80;99.90
39525;DHT22;25203;50.754;6.978;2022-12-07T13:28:20;5.90;99.90
39525;DHT22;25203;50.754;6.978;2022-12-07T13:30:22;5.90;99.90
39525;DHT22;25203;50.754;6.978;2022-12-07T13:32:28;5.90;99.90
39525;DHT22;25203;50.754;6.978;2022-12-07T13:34:39;5.90;99.90
39525;DHT22;25203;50.754;6.978;2022-12-07T13:36:46;6.00;99.90
39525;DHT22;25203;50.754;6.978;2022-12-07T13:38:55;6.00;99.90
39525;DHT22;25203;50.754;6.978;2022-12-07T13:41:17;6.00;99.90
39525;DHT22;25203;50.754;6.978;2022-12-07T13:43:17;6.00;99.90
39525;DHT22;25203;50.754;6.978;2022-12-07T13:45:25;6.00;99.90
39525;DHT22;25203;50.754;6.978;2022-12-07T13:47:51;5.90;99.90
39525;DHT22;25203;50.754;6.978;2022-12-07T13:49:55;5.90;99.90
39525;DHT22;25203;50.754;6.978;2022-12-07T13:52:14;5.90;99.90
39525;DHT22;25203;50.754;6.978;2022-12-07T13:54:17;5.80;99.90
39525;DHT22;25203;50.754;6.978;2022-12-07T13:56:17;5.70;99.90
39525;DHT22;25203;50.754;6.978;2022-12-07T13:58:18;5.60;99.90
39525;DHT22;25203;50.754;6.978;2022-12-07T14:00:23;5.40;99.90
39525;DHT22;25203;50.754;6.978;2022-12-07T14:02:30;5.40;99.90
39525;DHT22;25203;50.754;6.978;2022-12-07T14:06:35;5.30;99.90
39525;DHT22;25203;50.754;6.978;2022-12-07T14:08:35;5.20;99.90
39525;DHT22;25203;50.754;6.978;2022-12-07T14:10:41;5.10;99.90
39525;DHT22;25203;50.754;6.978;2022-12-07T14:12:53;5.00;99.90
39525;DHT22;25203;50.754;6.978;2022-12-07T14:14:55;4.80;99.90
39525;DHT22;25203;50.754;6.978;2022-12-07T14:17:16;4.70;99.90
39525;DHT22;25203;50.754;6.978;2022-12-07T14:19:43;4.50;99.90
39525;DHT22;25203;50.754;6.978;2022-12-07T14:21:44;4.50;99.90
39525;DHT22;25203;50.754;6.978;2022-12-07T14:23:47;4.40;99.90
39525;DHT22;25203;50.754;6.978;2022-12-07T14:28:25;4.40;99.90
39525;DHT22;25203;50.754;6.978;2022-12-07T14:30:34;4.50;99.90
39525;DHT22;25203;50.754;6.978;2022-12-07T14:32:36;4.50;99.90
39525;DHT22;25203;50.754;6.978;2022-12-07T14:34:37;4.60;99.90
39525;DHT22;25203;50.754;6.978;2022-12-07T14:36:38;4.60;99.90
39525;DHT22;25203;50.754;6.978;2022-12-07T14:38:39;4.60;99.90
39525;DHT22;25203;50.754;6.978;2022-12-07T14:40:39;4.70;99.90
39525;DHT22;25203;50.754;6.978;2022-12-07T14:42:42;4.70;99.90
39525;DHT22;25203;50.754;6.978;2022-12-07T14:44:44;4.70;99.90
39525;DHT22;25203;50.754;6.978;2022-12-07T14:46:45;4.70;99.90
39525;DHT22;25203;50.754;6.978;2022-12-07T14:48:46;4.80;99.90
39525;DHT22;25203;50.754;6.978;2022-12-07T14:50:52;4.80;99.90
39525;DHT22;25203;50.754;6.978;2022-12-07T14:52:59;4.80;99.90
39525;DHT22;25203;50.754;6.978;2022-12-07T14:55:01;4.80;99.90
39525;DHT22;25203;50.754;6.978;2022-12-07T14:57:02;4.80;99.90
39525;DHT22;25203;50.754;6.978;2022-12-07T14:59:02;4.80;99.90
39525;DHT22;25203;50.754;6.978;2022-12-07T15:01:04;4.90;99.90
39525;DHT22;25203;50.754;6.978;2022-12-07T15:03:05;4.80;99.90
39525;DHT22;25203;50.754;6.978;2022-12-07T15:05:06;4.90;99.90
39525;DHT22;25203;50.754;6.978;2022-12-07T15:07:14;4.80;99.90
39525;DHT22;25203;50.754;6.978;2022-12-07T15:09:17;4.80;99.90
39525;DHT22;25203;50.754;6.978;2022-12-07T15:11:18;4.80;99.90
39525;DHT22;25203;50.754;6.978;2022-12-07T15:13:19;4.80;99.90
39525;DHT22;25203;50.754;6.978;2022-12-07T15:15:38;4.80;99.90
39525;DHT22;25203;50.754;6.978;2022-12-07T15:17:39;4.80;99.90
39525;DHT22;25203;50.754;6.978;2022-12-07T15:19:40;4.80;99.90
39525;DHT22;25203;50.754;6.978;2022-12-07T15:21:41;4.80;99.90
39525;DHT22;25203;50.754;6.978;2022-12-07T15:23:42;4.80;99.90